Time;durP1;ratioP1;P1;durP2;ratioP2;P2;SDS_P1;SDS_P2;PMS_P1;PMS_P2;Temp;Humidity;BMP_temperature;BMP_pressure;BME280_temperature;BME280_humidity;BME280_pressure;Samples;Min_cycle;Max_cycle;Signal;HPM_P1;HPM_P2
2022/01/23 00:01:27;;;;;;;27.73;14.73;;;;;;;-4.22;68.75;102256.00;5051732;28;20075;-63
2022/01/23 00:03:53;;;;;;;23.90;14.65;;;;;;;-4.36;68.16;102239.78;5051820;28;20403;-61
2022/01/23 00:06:18;;;;;;;27.57;16.80;;;;;;;-4.40;68.56;102256.34;5051881;28;20033;-61
2022/01/23 00:08:44;;;;;;;21.53;13.57;;;;;;;-4.80;68.63;102201.69;5052059;28;20468;-62
2022/01/23 00:11:09;;;;;;;22.57;15.73;;;;;;;-4.60;69.61;102240.31;5051808;28;20033;-61
2022/01/23 00:19:05;;;;;;;21.90;13.07;;;;;;;-4.55;69.05;102251.47;5051802;28;20132;-63
2022/01/23 00:21:33;;;;;;;19.17;12.40;;;;;;;-4.48;68.57;102255.66;5051869;28;20041;-61
2022/01/23 00:31:54;;;;;;;24.13;15.68;;;;;;;-4.52;68.91;102261.81;5051658;28;20045;-61
2022/01/23 00:34:19;;;;;;;20.93;13.00;;;;;;;-4.55;68.40;102269.66;5051548;28;20377;-60
2022/01/23 00:36:45;;;;;;;23.17;13.67;;;;;;;-4.54;69.92;102271.38;5051623;28;20082;-61
2022/01/23 00:39:10;;;;;;;22.43;14.03;;;;;;;-4.58;68.90;102264.53;5051527;28;20041;-60
2022/01/23 00:41:36;;;;;;;21.67;13.83;;;;;;;-4.61;68.80;102259.41;5051530;28;20036;-63
2022/01/23 00:44:02;;;;;;;19.20;14.00;;;;;;;-4.84;68.82;102268.47;5051792;28;20033;-61
2022/01/23 00:46:34;;;;;;;28.83;15.45;;;;;;;-5.02;69.48;102254.06;5051581;28;20091;-61
2022/01/23 00:51:27;;;;;;;19.07;13.70;;;;;;;-4.86;68.97;102265.03;5051588;28;20128;-58
2022/01/23 00:53:53;;;;;;;23.95;14.27;;;;;;;-4.92;68.87;102262.53;5051247;28;20554;-60
2022/01/23 00:56:19;;;;;;;22.60;14.13;;;;;;;-4.82;69.11;102279.69;5051607;28;20045;-60
2022/01/23 00:58:44;;;;;;;23.93;13.93;;;;;;;-4.73;68.87;102278.66;5051453;28;20380;-61
2022/01/23 01:01:11;;;;;;;22.57;15.07;;;;;;;-4.76;68.85;102256.19;5051646;28;20064;-61
2022/01/23 01:03:37;;;;;;;21.55;13.57;;;;;;;-4.55;68.28;102265.31;5055406;28;20036;-61
2022/01/23 01:06:03;;;;;;;19.97;12.37;;;;;;;-4.55;68.72;102246.28;5055212;28;20045;-62
2022/01/23 01:08:28;;;;;;;22.42;14.30;;;;;;;-4.57;67.85;102238.50;5055050;28;20131;-61
2022/01/23 01:11:16;;;;;;;21.23;12.37;;;;;;;-4.92;68.22;102192.38;5054990;28;20166;-60
2022/01/23 01:14:18;;;;;;;14.93;11.23;;;;;;;-4.81;68.47;102225.97;5054944;28;20510;-60
2022/01/23 01:31:28;;;;;;;20.05;13.52;;;;;;;-4.91;68.26;102256.47;5053295;28;20036;-61
2022/01/23 01:38:31;;;;;;;22.70;11.43;;;;;;;-4.90;69.29;102276.38;5052808;28;20092;-60
2022/01/23 01:40:57;;;;;;;22.95;14.45;;;;;;;-4.73;68.90;102294.25;5053019;28;20052;-60
2022/01/23 01:43:23;;;;;;;20.77;13.63;;;;;;;-4.83;69.16;102265.00;5054290;28;20041;-62
2022/01/23 01:45:48;;;;;;;16.77;11.80;;;;;;;-4.68;69.15;102284.63;5054025;28;20408;-61
2022/01/23 01:48:17;;;;;;;19.97;11.80;;;;;;;-4.57;68.47;102292.25;5054195;28;20063;-60
2022/01/23 01:50:46;;;;;;;21.40;12.37;;;;;;;-4.42;69.47;102312.75;5053117;28;20037;-59
2022/01/23 01:53:12;;;;;;;21.73;12.35;;;;;;;-4.36;68.30;102302.22;5054362;28;20045;-60
2022/01/23 01:55:46;;;;;;;18.38;13.10;;;;;;;-4.35;67.27;102303.94;5053872;28;20040;-61
2022/01/23 02:00:59;;;;;;;19.10;12.30;;;;;;;-4.28;67.47;102305.53;5054029;28;20048;-61
2022/01/23 02:08:45;;;;;;;21.23;12.95;;;;;;;-4.48;67.11;102289.47;5053874;28;20100;-60
2022/01/23 02:11:17;;;;;;;23.58;11.30;;;;;;;-4.48;66.74;102295.50;5054016;28;20051;-61
2022/01/23 02:13:53;;;;;;;24.23;15.75;;;;;;;-4.48;67.25;102308.53;5053728;28;20128;-61
2022/01/23 02:54:44;;;;;;;20.67;13.50;;;;;;;-4.70;67.99;102362.63;5052708;28;20036;-59
2022/01/23 02:57:11;;;;;;;24.48;14.77;;;;;;;-4.70;67.04;102351.38;5053151;28;20164;-61
2022/01/23 02:59:38;;;;;;;24.77;15.38;;;;;;;-4.77;68.05;102357.56;5053122;28;20059;-61
2022/01/23 03:02:34;;;;;;;21.40;14.48;;;;;;;-4.80;67.45;102358.50;5052979;28;20501;-60
2022/01/23 03:05:02;;;;;;;26.60;15.18;;;;;;;-4.82;68.05;102354.19;5052857;28;20382;-60
2022/01/23 03:10:17;;;;;;;24.08;15.23;;;;;;;-4.90;67.46;102356.09;5052727;28;19924;-62
2022/01/23 03:24:02;;;;;;;19.92;13.68;;;;;;;-5.30;68.88;102328.97;5052658;28;20110;-61
2022/01/23 03:24:10;;;;;;;24.40;15.52;;;;;;;-5.05;68.82;102378.81;5052541;28;20037;-61
2022/01/23 03:27:15;;;;;;;25.40;15.57;;;;;;;-5.02;69.11;102383.09;5052546;28;20488;-62
2022/01/23 03:29:27;;;;;;;23.65;13.63;;;;;;;-4.89;69.48;102383.78;5052031;28;20053;-62
2022/01/23 03:34:23;;;;;;;30.90;14.73;;;;;;;-4.89;69.40;102395.03;5052305;28;20037;-63
2022/01/23 03:36:49;;;;;;;25.10;13.05;;;;;;;-4.95;69.75;102389.91;5052426;28;20069;-61
2022/01/23 03:39:15;;;;;;;22.65;14.68;;;;;;;-5.00;69.84;102391.72;5052469;28;20044;-63
2022/01/23 03:41:43;;;;;;;22.80;13.37;;;;;;;-5.05;68.66;102398.75;5052164;28;20591;-62
2022/01/23 03:44:10;;;;;;;24.52;13.75;;;;;;;-5.08;69.30;102398.78;5052049;28;20032;-62
2022/01/23 03:51:53;;;;;;;21.27;13.05;;;;;;;-5.17;70.14;102388.53;5052216;28;20044;-62
2022/01/23 03:54:18;;;;;;;21.57;12.57;;;;;;;-5.00;69.64;102396.91;5052041;28;20432;-61
2022/01/23 03:56:44;;;;;;;19.53;12.23;;;;;;;-4.92;69.43;102395.06;5051882;28;20123;-60
2022/01/23 03:59:10;;;;;;;18.47;13.27;;;;;;;-4.83;68.17;102396.66;5051871;28;20436;-62
2022/01/23 04:01:35;;;;;;;21.10;12.07;;;;;;;-4.73;68.89;102417.28;5052066;28;20033;-61
2022/01/23 04:04:06;;;;;;;18.17;11.90;;;;;;;-4.70;68.80;102422.41;5052023;28;20033;-61
2022/01/23 04:06:32;;;;;;;22.08;13.88;;;;;;;-4.60;67.98;102422.28;5051948;28;20037;-60
2022/01/23 04:08:57;;;;;;;21.08;13.57;;;;;;;-4.82;68.64;102396.66;5051617;28;20033;-64
2022/01/23 04:11:23;;;;;;;21.00;13.83;;;;;;;-4.85;69.29;102411.44;5051683;28;20515;-60
2022/01/23 04:14:04;;;;;;;22.10;14.40;;;;;;;-4.99;69.26;102403.84;5051842;28;20415;-63
2022/01/23 04:19:28;;;;;;;19.27;12.30;;;;;;;-5.04;69.23;102411.69;5051706;28;20037;-61
2022/01/23 04:47:59;;;;;;;21.92;13.65;;;;;;;-5.16;70.83;102385.91;5055492;28;20072;-61
2022/01/23 04:59:50;;;;;;;18.95;13.23;;;;;;;-5.16;69.80;102427.47;5055530;28;20164;-61
2022/01/23 05:03:00;;;;;;;22.27;13.40;;;;;;;-5.11;70.41;102443.00;5055397;28;20033;-60
2022/01/23 05:05:08;;;;;;;19.83;12.80;;;;;;;-5.01;70.26;102452.38;5055020;28;20143;-60
2022/01/23 05:07:34;;;;;;;18.17;10.00;;;;;;;-4.98;68.74;102452.31;5055075;28;20037;-62
2022/01/23 05:09:59;;;;;;;17.33;11.55;;;;;;;-4.94;68.52;102463.53;5055255;28;20518;-63
2022/01/23 05:12:29;;;;;;;23.33;11.67;;;;;;;-4.84;68.75;102472.91;5055206;28;20032;-63
2022/01/23 05:14:57;;;;;;;18.92;12.65;;;;;;;-4.86;68.26;102472.09;5055102;28;20060;-62
2022/01/23 05:17:23;;;;;;;18.25;11.00;;;;;;;-4.74;68.13;102472.75;5054977;28;20132;-62
2022/01/23 05:19:48;;;;;;;17.67;10.93;;;;;;;-4.81;68.00;102455.53;5054875;28;20079;-62
2022/01/23 05:24:48;;;;;;;22.52;12.23;;;;;;;-4.77;67.71;102471.94;5054788;28;20036;-60
2022/01/23 05:27:14;;;;;;;18.88;11.80;;;;;;;-4.71;68.85;102487.44;5055033;28;20055;-61
2022/01/23 05:29:40;;;;;;;19.70;13.43;;;;;;;-4.81;68.28;102484.13;5054727;28;20033;-61
2022/01/23 05:32:09;;;;;;;20.73;13.07;;;;;;;-4.76;67.89;102499.66;5054563;28;20044;-63
2022/01/23 05:35:00;;;;;;;22.08;13.38;;;;;;;-4.75;69.06;102516.97;5054802;28;20087;-62
2022/01/23 05:37:25;;;;;;;19.57;12.43;;;;;;;-4.79;69.45;102520.50;5054546;28;20044;-62
2022/01/23 05:39:51;;;;;;;23.17;13.20;;;;;;;-4.75;69.24;102525.63;5054786;28;20040;-61
2022/01/23 05:42:17;;;;;;;23.17;12.80;;;;;;;-4.82;68.99;102513.59;5054628;28;20150;-63
2022/01/23 05:44:43;;;;;;;21.10;12.47;;;;;;;-4.90;69.50;102486.88;5054566;28;20037;-63
2022/01/23 05:47:11;;;;;;;21.90;11.43;;;;;;;-4.75;68.29;102512.63;5054100;28;20411;-59
2022/01/23 05:49:36;;;;;;;16.50;10.70;;;;;;;-4.74;68.21;102514.34;5054308;28;20492;-62
2022/01/23 05:52:05;;;;;;;21.33;12.83;;;;;;;-4.81;68.40;102491.91;5054320;28;20044;-62
2022/01/23 05:54:30;;;;;;;18.80;12.30;;;;;;;-4.74;68.96;102495.28;5054410;28;20036;-60
2022/01/23 05:56:56;;;;;;;20.67;12.43;;;;;;;-4.70;69.25;102482.22;5054339;28;20416;-62
2022/01/23 05:59:22;;;;;;;18.13;11.60;;;;;;;-4.71;68.63;102471.84;5054375;28;20033;-62
2022/01/23 06:01:51;;;;;;;18.73;12.33;;;;;;;-4.54;69.00;102500.19;5053103;28;20052;-62
2022/01/23 06:04:20;;;;;;;21.38;12.68;;;;;;;-4.61;68.77;102485.56;5053933;28;20603;-62
2022/01/23 06:06:46;;;;;;;20.35;13.98;;;;;;;-4.55;69.15;102491.53;5054161;28;20037;-63
2022/01/23 06:09:12;;;;;;;20.23;13.60;;;;;;;-4.66;68.86;102485.63;5054173;28;20103;-61
2022/01/23 06:11:37;;;;;;;20.80;14.50;;;;;;;-4.75;68.26;102484.03;5054325;28;20492;-62
2022/01/23 06:14:03;;;;;;;21.93;14.87;;;;;;;-4.92;69.29;102491.19;5053939;28;20031;-61
2022/01/23 06:16:31;;;;;;;23.70;13.57;;;;;;;-5.08;68.69;102492.31;5053582;28;20578;-63
2022/01/23 06:18:56;;;;;;;26.10;16.45;;;;;;;-5.23;70.22;102493.34;5054382;28;20033;-61
2022/01/23 06:21:24;;;;;;;20.40;12.67;;;;;;;-5.55;70.42;102444.44;5054257;28;20037;-62
2022/01/23 06:24:00;;;;;;;25.75;14.38;;;;;;;-5.23;69.85;102492.50;5053717;28;20033;-66
2022/01/23 06:26:33;;;;;;;17.80;13.02;;;;;;;-5.13;70.07;102504.50;5053992;28;20036;-65
2022/01/23 06:29:02;;;;;;;19.75;12.75;;;;;;;-5.19;69.02;102517.56;5053997;28;20060;-65
2022/01/23 06:31:28;;;;;;;21.98;12.55;;;;;;;-5.22;68.75;102509.78;5053933;28;20040;-65
2022/01/23 06:33:54;;;;;;;17.50;11.07;;;;;;;-5.05;69.44;102515.66;5053700;28;20045;-63
2022/01/23 06:36:19;;;;;;;17.40;11.77;;;;;;;-4.88;69.81;102513.69;5053408;28;20040;-66
2022/01/23 06:38:45;;;;;;;21.97;13.07;;;;;;;-4.88;68.98;102515.44;5053500;28;20502;-63
2022/01/23 06:41:10;;;;;;;29.57;13.67;;;;;;;-4.98;68.11;102509.47;5053883;28;20037;-66
2022/01/23 06:43:36;;;;;;;22.90;13.07;;;;;;;-4.92;68.79;102518.94;5053651;28;20069;-64
2022/01/23 06:46:02;;;;;;;19.23;12.67;;;;;;;-4.89;67.36;102518.91;5052428;28;20134;-65
2022/01/23 06:48:27;;;;;;;19.70;12.53;;;;;;;-5.03;67.71;102506.09;5053455;28;20044;-64
2022/01/23 06:50:53;;;;;;;21.73;14.27;;;;;;;-5.35;67.74;102489.19;5053335;28;20060;-65
2022/01/23 06:53:18;;;;;;;20.60;12.73;;;;;;;-5.56;68.87;102473.00;5053154;28;20041;-64
2022/01/23 06:55:43;;;;;;;26.10;15.67;;;;;;;-5.52;68.49;102522.28;5051905;28;20071;-67
2022/01/23 06:58:10;;;;;;;23.07;13.40;;;;;;;-5.61;68.62;102528.44;5053211;28;20036;-65
2022/01/23 07:00:35;;;;;;;24.17;14.43;;;;;;;-5.66;69.04;102539.75;5052219;28;20052;-67
2022/01/23 07:03:01;;;;;;;20.30;13.60;;;;;;;-5.69;69.56;102545.84;5051988;28;20068;-66
2022/01/23 07:05:27;;;;;;;25.90;14.77;;;;;;;-5.71;68.84;102546.72;5053186;28;20131;-65
2022/01/23 07:07:52;;;;;;;25.10;14.73;;;;;;;-5.82;68.53;102522.59;5053202;28;20033;-64
2022/01/23 07:10:20;;;;;;;25.73;14.90;;;;;;;-5.93;67.90;102522.75;5053125;28;20480;-69
2022/01/23 07:12:45;;;;;;;24.40;13.88;;;;;;;-6.17;68.22;102529.00;5052763;28;20127;-66
2022/01/23 07:15:12;;;;;;;23.30;14.37;;;;;;;-6.32;68.38;102536.94;5052287;28;20136;-64
2022/01/23 07:17:40;;;;;;;26.88;14.25;;;;;;;-6.52;69.29;102538.81;5052547;28;20045;-67
2022/01/23 07:20:06;;;;;;;24.17;14.30;;;;;;;-6.62;70.00;102554.41;5052685;28;20496;-63
2022/01/23 07:22:31;;;;;;;26.83;14.38;;;;;;;-6.79;70.20;102543.28;5052451;28;20044;-64
2022/01/23 07:25:01;;;;;;;23.97;14.60;;;;;;;-6.88;69.29;102530.41;5052504;28;20033;-63
2022/01/23 07:27:29;;;;;;;32.33;16.63;;;;;;;-6.75;68.84;102551.91;5052392;28;20044;-63
2022/01/23 07:29:54;;;;;;;25.10;14.15;;;;;;;-6.85;70.00;102527.78;5052594;28;20048;-67
2022/01/23 07:32:20;;;;;;;23.60;13.87;;;;;;;-6.72;69.56;102549.28;5052794;28;20081;-62
2022/01/23 07:34:46;;;;;;;25.70;13.77;;;;;;;-6.56;69.49;102553.50;5052475;28;20040;-66
2022/01/23 07:37:12;;;;;;;28.47;14.30;;;;;;;-6.45;68.34;102572.44;5052237;28;20563;-62
2022/01/23 07:39:39;;;;;;;26.48;16.05;;;;;;;-6.47;68.61;102569.00;5051984;28;20040;-62
2022/01/23 07:42:05;;;;;;;27.20;13.88;;;;;;;-6.47;68.94;102565.53;5051735;28;20055;-64
2022/01/23 07:44:31;;;;;;;21.88;13.80;;;;;;;-6.39;69.38;102564.59;5051631;28;20033;-62
2022/01/23 07:46:56;;;;;;;32.93;16.97;;;;;;;-6.47;68.28;102552.59;5051794;28;20029;-61
2022/01/23 07:49:22;;;;;;;29.23;15.53;;;;;;;-6.43;68.64;102564.66;5051824;28;20472;-62
2022/01/23 07:51:47;;;;;;;22.37;13.57;;;;;;;-6.43;68.63;102570.69;5051858;28;20102;-63
2022/01/23 07:54:13;;;;;;;25.23;15.33;;;;;;;-6.64;68.51;102548.38;5051629;28;20365;-63
2022/01/23 07:56:42;;;;;;;21.03;13.70;;;;;;;-6.45;68.42;102584.53;5051486;28;20040;-63
2022/01/23 07:59:08;;;;;;;21.77;15.20;;;;;;;-6.46;68.19;102559.47;5051787;28;20032;-62
2022/01/23 08:01:36;;;;;;;32.78;15.60;;;;;;;-6.61;68.33;102534.53;5051753;28;20555;-63
2022/01/23 08:04:01;;;;;;;23.65;12.95;;;;;;;-6.23;68.08;102590.44;5051794;28;20127;-64
2022/01/23 08:06:32;;;;;;;21.77;13.63;;;;;;;-6.27;67.45;102592.19;5051698;28;20451;-64
2022/01/23 08:08:57;;;;;;;24.13;13.75;;;;;;;-6.35;67.49;102594.00;5051559;28;20098;-64
2022/01/23 08:11:23;;;;;;;23.00;14.37;;;;;;;-6.37;67.60;102593.13;5051705;28;20041;-63
2022/01/23 08:13:48;;;;;;;25.57;13.80;;;;;;;-6.38;66.92;102605.22;5051676;28;20041;-63
2022/01/23 08:16:16;;;;;;;25.87;15.43;;;;;;;-6.58;67.18;102609.69;5050023;28;20163;-64
2022/01/23 08:18:42;;;;;;;30.00;15.70;;;;;;;-6.85;67.33;102566.63;5050301;28;20041;-66
2022/01/23 08:21:10;;;;;;;22.73;14.10;;;;;;;-6.67;67.78;102605.38;5050379;28;20082;-63
2022/01/23 08:23:38;;;;;;;19.15;11.88;;;;;;;-6.39;68.66;102608.69;5051279;28;20499;-71
2022/01/23 08:26:05;;;;;;;19.33;13.07;;;;;;;-6.14;67.59;102611.97;5051786;28;20064;-74
2022/01/23 08:28:30;;;;;;;22.55;14.25;;;;;;;-6.21;67.13;102594.75;5051626;28;20033;-71
2022/01/23 08:30:56;;;;;;;28.43;14.60;;;;;;;-5.80;66.74;102620.31;5051801;28;20048;-67
2022/01/23 08:33:21;;;;;;;25.17;15.23;;;;;;;-5.88;65.77;102616.06;5033762;28;20032;-66
2022/01/23 08:35:47;;;;;;;23.40;13.20;;;;;;;-5.86;66.60;102619.50;5051475;28;20033;-71
2022/01/23 08:38:14;;;;;;;20.00;13.07;;;;;;;-5.72;65.36;102630.66;5051465;28;20033;-70
2022/01/23 08:43:13;;;;;;;20.67;13.13;;;;;;;-5.59;65.19;102650.41;5050296;28;20043;-71
2022/01/23 08:45:39;;;;;;;23.38;12.95;;;;;;;-5.61;64.37;102631.41;5051265;28;20063;-68
2022/01/23 08:48:05;;;;;;;24.77;15.00;;;;;;;-5.55;64.50;102646.06;5051546;28;20032;-68
2022/01/23 08:50:31;;;;;;;20.27;12.80;;;;;;;-5.46;65.13;102646.84;5051459;28;20124;-68
2022/01/23 08:52:57;;;;;;;21.83;13.67;;;;;;;-5.47;64.34;102639.94;5051073;28;20116;-73
2022/01/23 08:55:22;;;;;;;19.47;13.03;;;;;;;-5.71;65.13;102630.63;5049905;28;20037;-66
2022/01/23 08:57:48;;;;;;;27.20;13.63;;;;;;;-5.93;64.94;102632.56;5051560;28;20045;-68
2022/01/23 09:00:14;;;;;;;23.13;14.90;;;;;;;-6.11;65.50;102650.84;5051308;28;20490;-67
2022/01/23 09:02:41;;;;;;;24.80;14.95;;;;;;;-6.31;65.68;102644.94;5051354;28;20029;-72
2022/01/23 09:05:07;;;;;;;26.55;15.45;;;;;;;-6.42;66.04;102628.59;5051285;28;20041;-64
2022/01/23 09:07:32;;;;;;;27.47;17.20;;;;;;;-6.31;65.58;102643.22;5051332;28;20037;-64
2022/01/23 09:10:03;;;;;;;31.03;19.60;;;;;;;-6.51;65.72;102634.69;5051070;28;20037;-68
2022/01/23 09:15:07;;;;;;;37.50;17.23;;;;;;;-6.55;66.35;102645.94;5050956;28;20099;-63
2022/01/23 09:17:34;;;;;;;28.55;17.58;;;;;;;-6.19;67.10;102673.38;5051106;28;20056;-71
2022/01/23 09:20:00;;;;;;;25.77;16.85;;;;;;;-6.01;65.66;102657.72;5049177;28;20041;-71
2022/01/23 09:22:31;;;;;;;27.87;17.50;;;;;;;-5.72;65.01;102670.44;5033311;28;20035;-71
2022/01/23 09:24:58;;;;;;;23.77;17.33;;;;;;;-5.45;65.01;102684.91;5054956;28;20029;-69
2022/01/23 09:27:24;;;;;;;23.65;15.13;;;;;;;-5.40;64.87;102675.34;5050359;28;20045;-68
2022/01/23 09:29:52;;;;;;;23.00;15.30;;;;;;;-5.38;64.38;102672.72;5054200;28;20020;-68
2022/01/23 09:32:20;;;;;;;24.13;14.35;;;;;;;-5.36;63.82;102666.66;5054144;28;20078;-70
2022/01/23 09:34:46;;;;;;;23.05;14.55;;;;;;;-5.12;64.58;102677.69;5053938;28;20071;-68
2022/01/23 09:37:14;;;;;;;24.77;14.30;;;;;;;-5.05;63.48;102668.94;5052956;28;20484;-66
2022/01/23 09:39:42;;;;;;;22.65;13.27;;;;;;;-4.93;63.84;102670.53;5054296;28;20492;-65
2022/01/23 09:42:17;;;;;;;21.48;13.18;;;;;;;-5.02;63.10;102661.97;5053822;28;20047;-68
2022/01/23 09:44:56;;;;;;;22.95;14.07;;;;;;;-5.04;63.65;102670.66;5054479;28;20455;-71
2022/01/23 09:47:21;;;;;;;22.95;13.07;;;;;;;-4.97;64.07;102651.50;5052744;28;20048;-66
2022/01/23 09:49:50;;;;;;;18.17;11.40;;;;;;;-4.87;63.57;102641.91;5054013;28;20033;-68
2022/01/23 09:52:17;;;;;;;18.65;12.23;;;;;;;-4.89;64.14;102634.13;5053612;28;20063;-69
2022/01/23 09:54:46;;;;;;;21.27;12.70;;;;;;;-5.09;64.31;102644.72;5053663;28;20032;-67
2022/01/23 09:57:12;;;;;;;19.42;11.90;;;;;;;-5.33;65.29;102632.84;5053738;28;20083;-72
2022/01/23 09:59:39;;;;;;;23.55;12.55;;;;;;;-5.51;65.96;102627.84;5052035;28;20086;-70
2022/01/23 10:02:05;;;;;;;20.08;12.73;;;;;;;-5.42;66.49;102626.91;5053341;28;20032;-66
2022/01/23 10:04:31;;;;;;;20.87;11.60;;;;;;;-5.28;66.19;102635.41;5053249;28;20059;-67
2022/01/23 10:06:58;;;;;;;16.50;11.02;;;;;;;-5.25;65.82;102629.31;5053703;28;20132;-67
2022/01/23 10:09:27;;;;;;;19.48;12.60;;;;;;;-5.12;65.19;102633.50;5053428;28;20135;-67
2022/01/23 10:11:53;;;;;;;20.58;11.18;;;;;;;-5.42;64.55;102595.75;5053359;28;20507;-69
2022/01/23 10:14:20;;;;;;;18.00;12.80;;;;;;;-5.35;65.10;102611.25;5053555;28;20116;-63
2022/01/23 10:16:49;;;;;;;17.83;11.93;;;;;;;-5.24;65.41;102600.72;5052104;28;20036;-66
2022/01/23 10:19:16;;;;;;;18.88;11.55;;;;;;;-5.14;65.63;102602.34;5053551;28;20041;-63
2022/01/23 10:21:43;;;;;;;19.92;12.15;;;;;;;-4.89;65.00;102609.88;5051052;28;20041;-66
2022/01/23 10:24:11;;;;;;;19.85;12.93;;;;;;;-4.84;65.02;102611.53;5052760;28;20043;-65
2022/01/23 10:26:39;;;;;;;16.70;11.52;;;;;;;-5.05;64.63;102609.19;5054300;28;20040;-68
2022/01/23 10:29:29;;;;;;;20.05;12.52;;;;;;;-5.16;66.15;102630.09;5053883;28;20029;-67
2022/01/23 10:32:03;;;;;;;20.48;13.45;;;;;;;-5.30;65.95;102632.81;5058258;28;20045;-68
2022/01/23 10:34:44;;;;;;;18.52;12.15;;;;;;;-5.29;66.87;102628.50;5054904;28;20098;-71
2022/01/23 10:37:11;;;;;;;18.35;11.18;;;;;;;-5.22;65.98;102618.88;5051869;28;20542;-73
2022/01/23 10:39:42;;;;;;;19.85;12.85;;;;;;;-5.26;65.46;102622.41;5053461;28;20036;-71
2022/01/23 10:42:46;;;;;;;19.17;11.60;;;;;;;-5.19;66.26;102630.13;5051981;28;20048;-71
2022/01/23 10:48:01;;;;;;;19.80;13.35;;;;;;;-5.02;66.31;102603.94;5052870;28;20040;-70
2022/01/23 10:50:26;;;;;;;30.85;16.25;;;;;;;-5.11;66.08;102606.66;5051608;28;20131;-65
2022/01/23 10:52:53;;;;;;;31.63;17.60;;;;;;;-5.07;66.13;102621.31;5053073;28;20465;-67
2022/01/23 10:55:29;;;;;;;35.05;18.95;;;;;;;-5.04;66.61;102626.47;5052817;28;20044;-69
2022/01/23 10:57:59;;;;;;;39.70;20.98;;;;;;;-5.02;67.16;102623.00;5052810;28;20099;-69
2022/01/23 11:00:29;;;;;;;33.22;17.25;;;;;;;-4.94;66.08;102643.69;5052180;28;20608;-73
2022/01/23 11:03:11;;;;;;;34.20;18.80;;;;;;;-4.90;66.03;102635.00;5053246;28;20541;-72
2022/01/23 11:05:41;;;;;;;37.60;18.52;;;;;;;-4.85;66.37;102643.59;5051882;28;20140;-73
2022/01/23 11:08:19;;;;;;;38.30;17.05;;;;;;;-4.96;67.33;102653.22;5052710;28;20041;-70
2022/01/23 11:10:56;;;;;;;40.47;18.90;;;;;;;-5.44;67.26;102550.75;5052997;28;20389;-69
2022/01/23 11:19:24;;;;;;;58.95;24.63;;;;;;;-4.70;66.89;102635.59;5052437;28;20164;-71
2022/01/23 11:21:52;;;;;;;49.28;24.15;;;;;;;-4.67;67.43;102639.88;5052492;28;20044;-68
2022/01/23 11:24:19;;;;;;;29.70;15.40;;;;;;;-4.76;65.90;102633.06;5052373;28;20553;-68
2022/01/23 11:26:45;;;;;;;25.77;15.23;;;;;;;-4.77;66.12;102633.94;5052157;28;20040;-69
2022/01/23 11:29:17;;;;;;;18.83;12.50;;;;;;;-4.80;66.28;102648.72;5052299;28;20041;-71
2022/01/23 11:31:43;;;;;;;23.55;13.45;;;;;;;-5.09;67.58;102617.88;5051656;28;20054;-70
2022/01/23 11:34:15;;;;;;;22.92;14.23;;;;;;;-4.79;67.16;102660.84;5052500;28;20167;-67
2022/01/23 11:36:41;;;;;;;29.20;18.17;;;;;;;-4.82;66.83;102656.53;5052273;28;20048;-68
2022/01/23 11:39:16;;;;;;;29.85;15.77;;;;;;;-4.99;67.62;102661.06;5051897;28;20060;-69
2022/01/23 11:53:50;;;;;;;28.85;15.30;;;;;;;-4.60;67.12;102661.50;5052071;28;20037;-69
2022/01/23 11:56:24;;;;;;;25.90;15.55;;;;;;;-4.53;67.85;102671.78;5051355;28;20043;-66
2022/01/23 11:59:09;;;;;;;23.92;15.32;;;;;;;-4.52;66.92;102670.91;5049456;28;20060;-65
2022/01/23 12:01:35;;;;;;;24.13;16.23;;;;;;;-4.51;67.79;102670.03;5049982;28;20056;-68
2022/01/23 12:04:06;;;;;;;22.85;13.77;;;;;;;-4.49;67.59;102670.00;5050812;28;20072;-63
2022/01/23 12:06:34;;;;;;;23.23;15.38;;;;;;;-4.51;67.05;102656.16;5050986;28;20060;-63
2022/01/23 12:09:18;;;;;;;27.35;14.95;;;;;;;-4.49;67.70;102670.00;5051671;28;20044;-66
2022/01/23 12:12:24;;;;;;;23.70;14.93;;;;;;;-4.42;67.00;102676.84;5051548;28;20028;-71
2022/01/23 12:17:21;;;;;;;27.77;15.50;;;;;;;-4.54;66.38;102651.00;5052141;28;20424;-68
2022/01/23 12:19:57;;;;;;;24.65;16.23;;;;;;;-4.46;67.13;102659.56;5051878;28;20500;-67
2022/01/23 12:22:35;;;;;;;27.77;17.00;;;;;;;-4.51;68.37;102667.41;5047431;28;20048;-65
2022/01/23 12:25:08;;;;;;;28.88;19.45;;;;;;;-4.60;68.07;102666.69;5051318;28;20069;-64
2022/01/23 12:27:37;;;;;;;28.27;16.88;;;;;;;-4.89;67.66;102661.84;5051191;28;20132;-66
2022/01/23 12:30:31;;;;;;;25.92;14.90;;;;;;;-4.82;69.18;102681.69;5050462;28;20036;-68
2022/01/23 12:33:22;;;;;;;28.00;16.23;;;;;;;-4.79;69.24;102682.50;5051827;28;20033;-65
2022/01/23 12:35:51;;;;;;;26.40;17.05;;;;;;;-4.66;69.27;102683.19;5051471;28;20519;-64
2022/01/23 12:38:17;;;;;;;;;;;;;;;-4.52;68.94;102678.69;5051669;28;20546;-64
2022/01/23 12:40:49;;;;;;;30.77;16.05;;;;;;;-4.53;68.85;102673.53;5051749;28;19917;-65
2022/01/23 12:43:21;;;;;;;31.33;16.58;;;;;;;-4.59;69.35;102652.81;5051393;28;20475;-64
2022/01/23 12:46:00;;;;;;;24.15;15.35;;;;;;;-4.62;71.01;102663.25;5051293;28;20081;-64
2022/01/23 12:48:26;;;;;;;22.58;14.15;;;;;;;-4.59;71.20;102668.41;5051394;28;20131;-67
2022/01/23 12:51:13;;;;;;;28.80;17.67;;;;;;;-4.74;72.53;102659.91;5052093;28;20124;-67
2022/01/23 12:53:48;;;;;;;29.25;14.25;;;;;;;-4.70;72.00;102651.19;5050645;28;20037;-69
2022/01/23 12:56:22;;;;;;;36.08;14.63;;;;;;;-4.59;71.85;102647.59;5050382;28;20040;-70
2022/01/23 12:58:59;;;;;;;29.55;14.10;;;;;;;-4.82;72.33;102607.16;5054812;28;20033;-69
2022/01/23 13:01:27;;;;;;;27.75;16.13;;;;;;;-4.60;72.59;102648.50;5055995;28;20497;-69
2022/01/23 13:03:58;;;;;;;24.13;14.90;;;;;;;-4.71;73.27;102627.81;5056063;28;20127;-71
2022/01/23 13:06:31;;;;;;;22.15;13.90;;;;;;;-4.52;73.39;102641.44;5055860;28;20056;-73
2022/01/23 13:09:11;;;;;;;24.92;14.13;;;;;;;-4.37;73.17;102654.22;5055861;28;20456;-72
2022/01/23 13:11:55;;;;;;;32.63;15.23;;;;;;;-4.50;73.84;102617.13;5055100;28;20534;-68
2022/01/23 13:14:27;;;;;;;24.85;14.32;;;;;;;-4.22;73.53;102645.34;5054994;28;20540;-70
2022/01/23 13:17:26;;;;;;;25.80;15.00;;;;;;;-4.10;73.76;102659.03;5054940;28;20140;-69
2022/01/23 13:31:05;;;;;;;26.08;16.13;;;;;;;-4.13;76.28;102640.88;5055317;28;20162;-71
2022/01/23 13:33:31;;;;;;;35.15;16.88;;;;;;;-4.19;75.66;102617.53;5055118;28;20052;-73
2022/01/23 13:36:03;;;;;;;29.02;14.07;;;;;;;-4.45;75.26;102572.84;5070139;28;20033;-73
2022/01/23 13:38:56;;;;;;;29.90;16.17;;;;;;;-3.95;75.72;102641.47;5055307;28;20499;-73
2022/01/23 13:42:13;;;;;;;30.00;17.08;;;;;;;-3.88;74.89;102641.34;5054199;28;20045;-68
2022/01/23 13:49:09;;;;;;;25.75;14.43;;;;;;;-3.88;75.11;102627.47;5054999;28;20048;-69
2022/01/23 13:52:21;;;;;;;26.80;14.88;;;;;;;-3.90;75.97;102639.66;5046063;28;20049;-70
2022/01/23 13:58:33;;;;;;;24.65;15.82;;;;;;;-4.43;76.34;102526.88;5055074;28;20519;-70
2022/01/23 14:11:11;;;;;;;17.33;11.65;;;;;;;-3.87;75.17;102623.97;5021563;28;20040;-72
2022/01/23 14:13:39;;;;;;;16.08;10.35;;;;;;;-3.91;75.16;102632.72;5049152;28;20045;-69
2022/01/23 14:16:06;;;;;;;17.80;11.60;;;;;;;-3.91;75.65;102617.97;5053192;28;20053;-70
2022/01/23 14:18:32;;;;;;;18.17;12.15;;;;;;;-3.89;75.39;102625.75;5054237;28;20048;-68
2022/01/23 14:21:09;;;;;;;21.97;12.40;;;;;;;-3.91;75.68;102631.00;5053999;28;20037;-67
2022/01/23 14:23:36;;;;;;;18.85;12.18;;;;;;;-4.05;76.83;102627.72;5054084;28;20052;-68
2022/01/23 14:26:07;;;;;;;18.98;12.20;;;;;;;-3.97;75.75;102649.31;5052522;28;20036;-66
2022/01/23 14:28:47;;;;;;;16.65;11.73;;;;;;;-4.01;76.04;102657.19;5053856;28;20036;-66
2022/01/23 14:31:20;;;;;;;16.05;10.70;;;;;;;-4.14;75.16;102633.94;5053766;28;20041;-66
2022/01/23 14:33:52;;;;;;;27.20;13.32;;;;;;;-4.18;75.68;102634.00;5053698;28;20056;-71
2022/01/23 14:36:23;;;;;;;15.32;9.38;;;;;;;-4.16;76.07;102651.31;5053713;28;20132;-68
2022/01/23 14:39:15;;;;;;;18.02;10.23;;;;;;;-4.14;75.98;102659.97;5053838;28;20405;-66
2022/01/23 14:41:42;;;;;;;16.80;10.27;;;;;;;-4.21;74.92;102645.31;5052918;28;20041;-71